sensor_id;sensor_type;location;lat;lon;timestamp;temperature;humidity
76537;DHT22;65381;51.254;15.592;2023-03-04T00:01:32;0.70;79.00
76537;DHT22;65381;51.254;15.592;2023-03-04T00:04:00;0.70;79.10
76537;DHT22;65381;51.254;15.592;2023-03-04T00:06:29;0.70;79.10
76537;DHT22;65381;51.254;15.592;2023-03-04T00:08:58;0.70;79.10
76537;DHT22;65381;51.254;15.592;2023-03-04T00:11:29;0.70;79.10
76537;DHT22;65381;51.254;15.592;2023-03-04T00:13:58;0.70;79.10
76537;DHT22;65381;51.254;15.592;2023-03-04T00:16:26;0.60;79.20
76537;DHT22;65381;51.254;15.592;2023-03-04T00:18:56;0.70;79.30
76537;DHT22;65381;51.254;15.592;2023-03-04T00:24:08;0.60;79.30
76537;DHT22;65381;51.254;15.592;2023-03-04T00:26:40;0.60;79.20
76537;DHT22;65381;51.254;15.592;2023-03-04T00:29:08;0.60;79.40
76537;DHT22;65381;51.254;15.592;2023-03-04T00:31:36;0.60;79.40
76537;DHT22;65381;51.254;15.592;2023-03-04T00:34:05;0.60;79.40
76537;DHT22;65381;51.254;15.592;2023-03-04T00:36:33;0.60;79.50
76537;DHT22;65381;51.254;15.592;2023-03-04T00:39:01;0.60;79.40
76537;DHT22;65381;51.254;15.592;2023-03-04T00:41:29;0.60;79.50
76537;DHT22;65381;51.254;15.592;2023-03-04T00:43:57;0.60;79.50
76537;DHT22;65381;51.254;15.592;2023-03-04T00:46:25;0.60;79.50
76537;DHT22;65381;51.254;15.592;2023-03-04T00:48:54;0.60;79.50
76537;DHT22;65381;51.254;15.592;2023-03-04T00:51:22;0.60;79.50
76537;DHT22;65381;51.254;15.592;2023-03-04T00:53:50;0.60;79.40
76537;DHT22;65381;51.254;15.592;2023-03-04T00:56:19;0.60;79.50
76537;DHT22;65381;51.254;15.592;2023-03-04T00:58:48;0.60;79.50
76537;DHT22;65381;51.254;15.592;2023-03-04T01:01:17;0.60;79.50
76537;DHT22;65381;51.254;15.592;2023-03-04T01:03:46;0.60;79.50
76537;DHT22;65381;51.254;15.592;2023-03-04T01:06:14;0.60;79.60
76537;DHT22;65381;51.254;15.592;2023-03-04T01:08:42;0.60;79.60
76537;DHT22;65381;51.254;15.592;2023-03-04T01:11:10;0.60;79.50
76537;DHT22;65381;51.254;15.592;2023-03-04T01:13:38;0.60;79.50
76537;DHT22;65381;51.254;15.592;2023-03-04T01:16:07;0.60;79.50
76537;DHT22;65381;51.254;15.592;2023-03-04T01:18:36;0.60;79.50
76537;DHT22;65381;51.254;15.592;2023-03-04T01:21:04;0.60;79.50
76537;DHT22;65381;51.254;15.592;2023-03-04T01:23:34;0.70;79.50
76537;DHT22;65381;51.254;15.592;2023-03-04T01:26:02;0.70;79.40
76537;DHT22;65381;51.254;15.592;2023-03-04T01:28:30;0.70;79.40
76537;DHT22;65381;51.254;15.592;2023-03-04T01:31:03;0.80;79.40
76537;DHT22;65381;51.254;15.592;2023-03-04T01:33:31;0.80;79.30
76537;DHT22;65381;51.254;15.592;2023-03-04T01:35:59;0.80;79.30
76537;DHT22;65381;51.254;15.592;2023-03-04T01:38:27;0.80;79.30
76537;DHT22;65381;51.254;15.592;2023-03-04T01:40:57;0.80;79.30
76537;DHT22;65381;51.254;15.592;2023-03-04T01:43:28;0.80;79.20
76537;DHT22;65381;51.254;15.592;2023-03-04T01:45:57;0.80;79.20
76537;DHT22;65381;51.254;15.592;2023-03-04T01:48:36;0.80;79.20
76537;DHT22;65381;51.254;15.592;2023-03-04T01:51:13;0.80;79.20
76537;DHT22;65381;51.254;15.592;2023-03-04T01:53:46;0.80;79.20
76537;DHT22;65381;51.254;15.592;2023-03-04T01:56:23;0.80;79.10
76537;DHT22;65381;51.254;15.592;2023-03-04T02:01:40;0.80;79.10
76537;DHT22;65381;51.254;15.592;2023-03-04T02:04:09;0.80;79.00
76537;DHT22;65381;51.254;15.592;2023-03-04T02:06:40;0.80;79.00
76537;DHT22;65381;51.254;15.592;2023-03-04T02:09:09;0.80;79.00
76537;DHT22;65381;51.254;15.592;2023-03-04T02:11:40;0.80;79.00
76537;DHT22;65381;51.254;15.592;2023-03-04T02:14:09;0.80;79.00
76537;DHT22;65381;51.254;15.592;2023-03-04T02:16:38;0.80;79.00
76537;DHT22;65381;51.254;15.592;2023-03-04T02:21:57;0.80;78.90
76537;DHT22;65381;51.254;15.592;2023-03-04T02:24:26;0.80;78.90
76537;DHT22;65381;51.254;15.592;2023-03-04T02:26:57;0.80;78.90
76537;DHT22;65381;51.254;15.592;2023-03-04T02:29:25;0.80;79.00
76537;DHT22;65381;51.254;15.592;2023-03-04T02:31:57;0.80;78.90
76537;DHT22;65381;51.254;15.592;2023-03-04T02:34:32;0.80;78.90
76537;DHT22;65381;51.254;15.592;2023-03-04T02:37:02;0.90;78.80
76537;DHT22;65381;51.254;15.592;2023-03-04T02:39:45;0.90;78.80
76537;DHT22;65381;51.254;15.592;2023-03-04T02:42:14;0.90;78.80
76537;DHT22;65381;51.254;15.592;2023-03-04T02:44:43;1.00;78.70
76537;DHT22;65381;51.254;15.592;2023-03-04T02:47:16;1.00;78.70
76537;DHT22;65381;51.254;15.592;2023-03-04T02:49:46;1.00;78.70
76537;DHT22;65381;51.254;15.592;2023-03-04T02:52:20;1.00;78.70
76537;DHT22;65381;51.254;15.592;2023-03-04T02:54:50;1.00;78.70
76537;DHT22;65381;51.254;15.592;2023-03-04T02:57:18;1.00;78.60
76537;DHT22;65381;51.254;15.592;2023-03-04T02:59:51;1.00;78.60
76537;DHT22;65381;51.254;15.592;2023-03-04T03:02:22;1.00;78.60
76537;DHT22;65381;51.254;15.592;2023-03-04T03:04:50;1.00;78.60
76537;DHT22;65381;51.254;15.592;2023-03-04T03:07:20;1.00;78.60
76537;DHT22;65381;51.254;15.592;2023-03-04T03:09:48;1.00;78.50
76537;DHT22;65381;51.254;15.592;2023-03-04T03:12:18;1.00;78.50
76537;DHT22;65381;51.254;15.592;2023-03-04T03:14:46;1.00;78.50
76537;DHT22;65381;51.254;15.592;2023-03-04T03:17:19;1.00;78.40
76537;DHT22;65381;51.254;15.592;2023-03-04T03:19:49;1.10;78.40
76537;DHT22;65381;51.254;15.592;2023-03-04T03:22:18;1.00;78.40
76537;DHT22;65381;51.254;15.592;2023-03-04T03:24:46;1.00;78.30
76537;DHT22;65381;51.254;15.592;2023-03-04T03:27:14;1.00;78.30
76537;DHT22;65381;51.254;15.592;2023-03-04T03:29:42;1.00;78.30
76537;DHT22;65381;51.254;15.592;2023-03-04T03:32:10;1.00;78.30
76537;DHT22;65381;51.254;15.592;2023-03-04T03:34:39;1.10;78.20
76537;DHT22;65381;51.254;15.592;2023-03-04T03:37:10;1.10;78.20
76537;DHT22;65381;51.254;15.592;2023-03-04T03:39:38;1.10;78.10
76537;DHT22;65381;51.254;15.592;2023-03-04T03:42:07;1.10;78.10
76537;DHT22;65381;51.254;15.592;2023-03-04T03:44:35;1.10;78.10
76537;DHT22;65381;51.254;15.592;2023-03-04T03:47:03;1.10;78.10
76537;DHT22;65381;51.254;15.592;2023-03-04T03:49:31;1.10;78.00
76537;DHT22;65381;51.254;15.592;2023-03-04T03:52:00;1.10;78.00
76537;DHT22;65381;51.254;15.592;2023-03-04T03:54:28;1.10;78.00
76537;DHT22;65381;51.254;15.592;2023-03-04T03:56:57;1.10;78.00
76537;DHT22;65381;51.254;15.592;2023-03-04T03:59:26;1.10;78.00
76537;DHT22;65381;51.254;15.592;2023-03-04T04:01:54;1.10;78.00
76537;DHT22;65381;51.254;15.592;2023-03-04T04:04:25;1.20;77.90
76537;DHT22;65381;51.254;15.592;2023-03-04T04:06:54;1.20;77.90
76537;DHT22;65381;51.254;15.592;2023-03-04T04:09:22;1.20;78.00
76537;DHT22;65381;51.254;15.592;2023-03-04T04:11:51;1.20;77.90
76537;DHT22;65381;51.254;15.592;2023-03-04T04:14:20;1.20;77.90
76537;DHT22;65381;51.254;15.592;2023-03-04T04:16:48;1.20;77.90
76537;DHT22;65381;51.254;15.592;2023-03-04T04:19:17;1.30;77.90
76537;DHT22;65381;51.254;15.592;2023-03-04T04:21:47;1.30;77.80
76537;DHT22;65381;51.254;15.592;2023-03-04T04:24:16;1.40;77.80
76537;DHT22;65381;51.254;15.592;2023-03-04T04:26:44;1.40;77.60
76537;DHT22;65381;51.254;15.592;2023-03-04T04:29:13;1.40;77.60
76537;DHT22;65381;51.254;15.592;2023-03-04T04:31:43;1.40;77.60
76537;DHT22;65381;51.254;15.592;2023-03-04T04:34:11;1.40;77.60
76537;DHT22;65381;51.254;15.592;2023-03-04T04:36:40;1.40;77.70
76537;DHT22;65381;51.254;15.592;2023-03-04T04:39:09;1.40;77.70
76537;DHT22;65381;51.254;15.592;2023-03-04T04:41:39;1.40;77.70
76537;DHT22;65381;51.254;15.592;2023-03-04T04:44:08;1.40;77.70
76537;DHT22;65381;51.254;15.592;2023-03-04T04:46:37;1.40;77.60
76537;DHT22;65381;51.254;15.592;2023-03-04T04:49:07;1.40;77.60
76537;DHT22;65381;51.254;15.592;2023-03-04T04:51:37;1.40;77.60
76537;DHT22;65381;51.254;15.592;2023-03-04T04:54:06;1.40;77.60
76537;DHT22;65381;51.254;15.592;2023-03-04T04:56:34;1.40;77.50
76537;DHT22;65381;51.254;15.592;2023-03-04T04:59:04;1.40;77.50
76537;DHT22;65381;51.254;15.592;2023-03-04T05:01:34;1.40;77.50
76537;DHT22;65381;51.254;15.592;2023-03-04T05:04:04;1.40;77.50
76537;DHT22;65381;51.254;15.592;2023-03-04T05:06:32;1.40;77.40
76537;DHT22;65381;51.254;15.592;2023-03-04T05:09:01;1.40;77.50
76537;DHT22;65381;51.254;15.592;2023-03-04T05:11:31;1.50;77.40
76537;DHT22;65381;51.254;15.592;2023-03-04T05:14:00;1.50;77.30
76537;DHT22;65381;51.254;15.592;2023-03-04T05:16:28;1.50;77.30
76537;DHT22;65381;51.254;15.592;2023-03-04T05:18:56;1.50;77.20
76537;DHT22;65381;51.254;15.592;2023-03-04T05:21:27;1.50;77.30
76537;DHT22;65381;51.254;15.592;2023-03-04T05:23:55;1.50;77.20
76537;DHT22;65381;51.254;15.592;2023-03-04T05:26:24;1.50;77.20
76537;DHT22;65381;51.254;15.592;2023-03-04T05:28:52;1.50;77.20
76537;DHT22;65381;51.254;15.592;2023-03-04T05:31:20;1.50;77.20
76537;DHT22;65381;51.254;15.592;2023-03-04T05:33:48;1.50;77.20
76537;DHT22;65381;51.254;15.592;2023-03-04T05:36:19;1.50;77.20
76537;DHT22;65381;51.254;15.592;2023-03-04T05:38:49;1.50;77.10
76537;DHT22;65381;51.254;15.592;2023-03-04T05:41:17;1.50;77.10
76537;DHT22;65381;51.254;15.592;2023-03-04T05:43:49;1.50;77.10
76537;DHT22;65381;51.254;15.592;2023-03-04T05:46:18;1.50;77.10
76537;DHT22;65381;51.254;15.592;2023-03-04T05:48:52;1.50;77.10
76537;DHT22;65381;51.254;15.592;2023-03-04T05:51:22;1.50;77.00
76537;DHT22;65381;51.254;15.592;2023-03-04T05:53:50;1.50;77.00
76537;DHT22;65381;51.254;15.592;2023-03-04T05:56:19;1.50;77.00
76537;DHT22;65381;51.254;15.592;2023-03-04T05:58:49;1.50;77.00
76537;DHT22;65381;51.254;15.592;2023-03-04T06:01:18;1.50;77.00
76537;DHT22;65381;51.254;15.592;2023-03-04T06:03:46;1.50;77.00
76537;DHT22;65381;51.254;15.592;2023-03-04T06:06:17;1.40;77.00
76537;DHT22;65381;51.254;15.592;2023-03-04T06:08:45;1.50;77.10
76537;DHT22;65381;51.254;15.592;2023-03-04T06:11:13;1.50;77.00
76537;DHT22;65381;51.254;15.592;2023-03-04T06:13:42;1.50;77.00
76537;DHT22;65381;51.254;15.592;2023-03-04T06:16:11;1.50;77.10
76537;DHT22;65381;51.254;15.592;2023-03-04T06:18:40;1.50;77.00
76537;DHT22;65381;51.254;15.592;2023-03-04T06:21:14;1.50;77.00
76537;DHT22;65381;51.254;15.592;2023-03-04T06:23:42;1.50;77.00
76537;DHT22;65381;51.254;15.592;2023-03-04T06:26:12;1.50;77.00
76537;DHT22;65381;51.254;15.592;2023-03-04T06:28:43;1.50;77.00
76537;DHT22;65381;51.254;15.592;2023-03-04T06:31:12;1.50;77.00
76537;DHT22;65381;51.254;15.592;2023-03-04T06:33:40;1.50;77.10
76537;DHT22;65381;51.254;15.592;2023-03-04T06:36:08;1.50;77.00
76537;DHT22;65381;51.254;15.592;2023-03-04T06:38:38;1.50;77.00
76537;DHT22;65381;51.254;15.592;2023-03-04T06:41:11;1.40;77.20
76537;DHT22;65381;51.254;15.592;2023-03-04T06:43:40;1.40;77.20
76537;DHT22;65381;51.254;15.592;2023-03-04T06:46:08;1.40;77.20
76537;DHT22;65381;51.254;15.592;2023-03-04T06:48:37;1.40;77.20
76537;DHT22;65381;51.254;15.592;2023-03-04T06:51:07;1.40;77.30
76537;DHT22;65381;51.254;15.592;2023-03-04T06:53:36;1.40;77.50
76537;DHT22;65381;51.254;15.592;2023-03-04T06:56:06;1.40;77.60
76537;DHT22;65381;51.254;15.592;2023-03-04T06:58:35;1.40;77.60
76537;DHT22;65381;51.254;15.592;2023-03-04T07:01:11;1.40;77.70
76537;DHT22;65381;51.254;15.592;2023-03-04T07:03:40;1.40;77.70
76537;DHT22;65381;51.254;15.592;2023-03-04T07:06:10;1.40;77.80
76537;DHT22;65381;51.254;15.592;2023-03-04T07:08:41;1.40;78.00
76537;DHT22;65381;51.254;15.592;2023-03-04T07:11:10;1.40;78.10
76537;DHT22;65381;51.254;15.592;2023-03-04T07:13:38;1.40;78.00
76537;DHT22;65381;51.254;15.592;2023-03-04T07:16:10;1.40;78.10
76537;DHT22;65381;51.254;15.592;2023-03-04T07:18:38;1.40;78.30
76537;DHT22;65381;51.254;15.592;2023-03-04T07:21:07;1.40;78.30
76537;DHT22;65381;51.254;15.592;2023-03-04T07:23:35;1.40;78.40
76537;DHT22;65381;51.254;15.592;2023-03-04T07:26:05;1.40;78.50
76537;DHT22;65381;51.254;15.592;2023-03-04T07:28:36;1.40;78.60
76537;DHT22;65381;51.254;15.592;2023-03-04T07:31:21;1.40;78.70
76537;DHT22;65381;51.254;15.592;2023-03-04T07:33:50;1.50;78.70
76537;DHT22;65381;51.254;15.592;2023-03-04T07:36:18;1.50;78.70
76537;DHT22;65381;51.254;15.592;2023-03-04T07:38:48;1.50;78.80
76537;DHT22;65381;51.254;15.592;2023-03-04T07:41:19;1.60;78.90
76537;DHT22;65381;51.254;15.592;2023-03-04T07:43:49;1.60;79.00
76537;DHT22;65381;51.254;15.592;2023-03-04T07:46:18;1.60;79.10
76537;DHT22;65381;51.254;15.592;2023-03-04T07:48:49;1.70;79.10
76537;DHT22;65381;51.254;15.592;2023-03-04T07:51:20;1.70;79.30
76537;DHT22;65381;51.254;15.592;2023-03-04T07:53:51;1.70;79.20
76537;DHT22;65381;51.254;15.592;2023-03-04T07:56:23;1.80;79.20
76537;DHT22;65381;51.254;15.592;2023-03-04T07:58:54;1.80;79.20
76537;DHT22;65381;51.254;15.592;2023-03-04T08:01:28;1.80;79.30
76537;DHT22;65381;51.254;15.592;2023-03-04T08:03:57;1.80;79.50
76537;DHT22;65381;51.254;15.592;2023-03-04T08:06:27;1.80;79.60
76537;DHT22;65381;51.254;15.592;2023-03-04T08:09:01;1.80;79.70
76537;DHT22;65381;51.254;15.592;2023-03-04T08:11:34;1.80;79.60
76537;DHT22;65381;51.254;15.592;2023-03-04T08:14:03;1.90;79.70
76537;DHT22;65381;51.254;15.592;2023-03-04T08:16:32;1.90;79.70
76537;DHT22;65381;51.254;15.592;2023-03-04T08:19:01;1.90;79.70
76537;DHT22;65381;51.254;15.592;2023-03-04T08:21:31;2.00;79.70
76537;DHT22;65381;51.254;15.592;2023-03-04T08:24:04;2.00;79.90
76537;DHT22;65381;51.254;15.592;2023-03-04T08:26:40;2.00;80.00
76537;DHT22;65381;51.254;15.592;2023-03-04T08:29:11;2.10;80.00
76537;DHT22;65381;51.254;15.592;2023-03-04T08:31:40;2.10;80.10
76537;DHT22;65381;51.254;15.592;2023-03-04T08:34:15;2.20;80.10
76537;DHT22;65381;51.254;15.592;2023-03-04T08:36:44;2.20;80.10
76537;DHT22;65381;51.254;15.592;2023-03-04T08:39:14;2.20;80.00
76537;DHT22;65381;51.254;15.592;2023-03-04T08:41:44;2.20;80.10
76537;DHT22;65381;51.254;15.592;2023-03-04T08:44:14;2.30;80.10
76537;DHT22;65381;51.254;15.592;2023-03-04T08:46:43;2.30;80.00
76537;DHT22;65381;51.254;15.592;2023-03-04T08:49:11;2.40;79.90
76537;DHT22;65381;51.254;15.592;2023-03-04T08:51:42;2.40;79.90
76537;DHT22;65381;51.254;15.592;2023-03-04T08:54:11;2.40;80.00
76537;DHT22;65381;51.254;15.592;2023-03-04T08:56:40;2.40;80.00
76537;DHT22;65381;51.254;15.592;2023-03-04T08:59:09;2.40;80.10
76537;DHT22;65381;51.254;15.592;2023-03-04T09:01:37;2.50;80.00
76537;DHT22;65381;51.254;15.592;2023-03-04T09:04:06;2.50;80.30
76537;DHT22;65381;51.254;15.592;2023-03-04T09:06:34;2.50;80.40
76537;DHT22;65381;51.254;15.592;2023-03-04T09:09:03;2.50;80.40
76537;DHT22;65381;51.254;15.592;2023-03-04T09:11:31;2.50;80.50
76537;DHT22;65381;51.254;15.592;2023-03-04T09:14:00;2.70;80.50
76537;DHT22;65381;51.254;15.592;2023-03-04T09:16:30;2.70;80.50
76537;DHT22;65381;51.254;15.592;2023-03-04T09:18:59;2.80;80.30
76537;DHT22;65381;51.254;15.592;2023-03-04T09:21:27;2.80;80.50
76537;DHT22;65381;51.254;15.592;2023-03-04T09:23:57;2.80;80.50
76537;DHT22;65381;51.254;15.592;2023-03-04T09:26:26;2.80;80.70
76537;DHT22;65381;51.254;15.592;2023-03-04T09:28:57;2.90;80.70
76537;DHT22;65381;51.254;15.592;2023-03-04T09:31:26;2.90;80.80
76537;DHT22;65381;51.254;15.592;2023-03-04T09:33:57;3.00;80.80
76537;DHT22;65381;51.254;15.592;2023-03-04T09:36:25;3.00;80.70
76537;DHT22;65381;51.254;15.592;2023-03-04T09:38:54;3.00;80.80
76537;DHT22;65381;51.254;15.592;2023-03-04T09:41:26;3.10;80.90
76537;DHT22;65381;51.254;15.592;2023-03-04T09:43:56;3.10;80.90
76537;DHT22;65381;51.254;15.592;2023-03-04T09:46:35;3.10;80.80
76537;DHT22;65381;51.254;15.592;2023-03-04T09:49:05;3.10;80.90
76537;DHT22;65381;51.254;15.592;2023-03-04T09:57:16;3.10;80.70
76537;DHT22;65381;51.254;15.592;2023-03-04T10:00:13;3.10;80.90
76537;DHT22;65381;51.254;15.592;2023-03-04T10:03:02;3.10;81.00
76537;DHT22;65381;51.254;15.592;2023-03-04T10:05:34;3.00;81.00
76537;DHT22;65381;51.254;15.592;2023-03-04T10:10:59;3.00;81.30
76537;DHT22;65381;51.254;15.592;2023-03-04T10:16:34;3.10;81.60
76537;DHT22;65381;51.254;15.592;2023-03-04T10:19:29;3.30;81.60
76537;DHT22;65381;51.254;15.592;2023-03-04T10:21:59;3.50;81.30
76537;DHT22;65381;51.254;15.592;2023-03-04T10:24:29;3.50;81.00
76537;DHT22;65381;51.254;15.592;2023-03-04T10:27:01;3.50;80.90
76537;DHT22;65381;51.254;15.592;2023-03-04T10:29:32;3.30;81.10
76537;DHT22;65381;51.254;15.592;2023-03-04T10:32:02;3.30;81.20
76537;DHT22;65381;51.254;15.592;2023-03-04T10:34:31;3.30;81.40
76537;DHT22;65381;51.254;15.592;2023-03-04T10:37:01;3.30;81.50
76537;DHT22;65381;51.254;15.592;2023-03-04T10:39:43;3.30;81.60
76537;DHT22;65381;51.254;15.592;2023-03-04T10:45:01;3.30;81.50
76537;DHT22;65381;51.254;15.592;2023-03-04T10:47:31;3.50;81.90
76537;DHT22;65381;51.254;15.592;2023-03-04T10:50:03;3.50;81.70
76537;DHT22;65381;51.254;15.592;2023-03-04T10:52:38;3.70;81.70
76537;DHT22;65381;51.254;15.592;2023-03-04T10:55:18;3.90;81.90
76537;DHT22;65381;51.254;15.592;2023-03-04T10:57:53;3.90;81.70
76537;DHT22;65381;51.254;15.592;2023-03-04T11:00:32;4.00;81.60
76537;DHT22;65381;51.254;15.592;2023-03-04T11:06:18;4.10;81.70
76537;DHT22;65381;51.254;15.592;2023-03-04T11:08:56;4.20;81.70
76537;DHT22;65381;51.254;15.592;2023-03-04T11:11:30;4.30;81.50
76537;DHT22;65381;51.254;15.592;2023-03-04T11:14:11;4.30;81.60
76537;DHT22;65381;51.254;15.592;2023-03-04T11:16:52;4.40;81.70
76537;DHT22;65381;51.254;15.592;2023-03-04T11:19:23;4.40;81.60
76537;DHT22;65381;51.254;15.592;2023-03-04T11:21:55;4.50;81.70
76537;DHT22;65381;51.254;15.592;2023-03-04T11:24:29;4.50;81.80
76537;DHT22;65381;51.254;15.592;2023-03-04T11:27:29;4.70;81.70
76537;DHT22;65381;51.254;15.592;2023-03-04T11:33:00;4.90;81.10
76537;DHT22;65381;51.254;15.592;2023-03-04T11:35:43;4.70;80.80
76537;DHT22;65381;51.254;15.592;2023-03-04T11:38:28;4.50;80.80
76537;DHT22;65381;51.254;15.592;2023-03-04T11:41:05;4.40;81.00
76537;DHT22;65381;51.254;15.592;2023-03-04T11:43:37;4.30;81.20
76537;DHT22;65381;51.254;15.592;2023-03-04T11:51:58;4.50;81.90
76537;DHT22;65381;51.254;15.592;2023-03-04T11:54:47;4.70;82.20
76537;DHT22;65381;51.254;15.592;2023-03-04T11:57:55;5.00;82.00
76537;DHT22;65381;51.254;15.592;2023-03-04T12:00:51;5.40;81.80
76537;DHT22;65381;51.254;15.592;2023-03-04T12:15:30;5.50;80.40
76537;DHT22;65381;51.254;15.592;2023-03-04T12:24:25;5.00;80.50
76537;DHT22;65381;51.254;15.592;2023-03-04T12:30:19;5.10;81.30
76537;DHT22;65381;51.254;15.592;2023-03-04T12:35:40;5.30;80.60
76537;DHT22;65381;51.254;15.592;2023-03-04T12:44:17;5.20;80.90
76537;DHT22;65381;51.254;15.592;2023-03-04T12:55:15;5.00;80.80
76537;DHT22;65381;51.254;15.592;2023-03-04T12:57:44;5.00;80.70
76537;DHT22;65381;51.254;15.592;2023-03-04T13:00:54;5.00;80.60
76537;DHT22;65381;51.254;15.592;2023-03-04T13:09:04;4.80;80.60
76537;DHT22;65381;51.254;15.592;2023-03-04T13:11:53;4.70;80.70
76537;DHT22;65381;51.254;15.592;2023-03-04T13:14:25;4.70;80.70
76537;DHT22;65381;51.254;15.592;2023-03-04T13:16:58;4.70;80.70
76537;DHT22;65381;51.254;15.592;2023-03-04T13:22:41;4.80;80.60
76537;DHT22;65381;51.254;15.592;2023-03-04T13:25:38;4.70;80.70
76537;DHT22;65381;51.254;15.592;2023-03-04T13:28:17;4.80;80.60
76537;DHT22;65381;51.254;15.592;2023-03-04T13:36:00;4.70;80.50
76537;DHT22;65381;51.254;15.592;2023-03-04T13:38:35;4.60;80.70
76537;DHT22;65381;51.254;15.592;2023-03-04T13:51:36;5.50;81.20
76537;DHT22;65381;51.254;15.592;2023-03-04T13:54:26;5.60;80.90
76537;DHT22;65381;51.254;15.592;2023-03-04T13:59:43;5.80;80.50
76537;DHT22;65381;51.254;15.592;2023-03-04T14:02:17;5.70;80.20
76537;DHT22;65381;51.254;15.592;2023-03-04T14:09:59;5.40;80.10
76537;DHT22;65381;51.254;15.592;2023-03-04T14:12:29;5.20;80.20
76537;DHT22;65381;51.254;15.592;2023-03-04T14:15:00;5.10;80.40
76537;DHT22;65381;51.254;15.592;2023-03-04T14:17:54;5.00;80.40
76537;DHT22;65381;51.254;15.592;2023-03-04T14:20:29;5.00;80.50
76537;DHT22;65381;51.254;15.592;2023-03-04T14:22:59;4.90;80.50
76537;DHT22;65381;51.254;15.592;2023-03-04T14:25:29;4.90;80.50
76537;DHT22;65381;51.254;15.592;2023-03-04T14:30:33;4.90;80.70
76537;DHT22;65381;51.254;15.592;2023-03-04T14:33:25;5.00;80.80
76537;DHT22;65381;51.254;15.592;2023-03-04T14:35:59;5.00;80.80
76537;DHT22;65381;51.254;15.592;2023-03-04T14:38:37;5.00;80.70
76537;DHT22;65381;51.254;15.592;2023-03-04T14:41:19;5.00;80.50
76537;DHT22;65381;51.254;15.592;2023-03-04T14:43:55;5.00;80.50
76537;DHT22;65381;51.254;15.592;2023-03-04T14:46:31;4.90;80.60
76537;DHT22;65381;51.254;15.592;2023-03-04T14:49:03;4.90;80.60
76537;DHT22;65381;51.254;15.592;2023-03-04T14:51:42;4.80;80.60
76537;DHT22;65381;51.254;15.592;2023-03-04T14:54:36;4.80;80.60
76537;DHT22;65381;51.254;15.592;2023-03-04T14:57:25;4.80;80.50
76537;DHT22;65381;51.254;15.592;2023-03-04T14:59:54;4.70;80.50
76537;DHT22;65381;51.254;15.592;2023-03-04T15:02:27;4.70;80.50
76537;DHT22;65381;51.254;15.592;2023-03-04T15:05:16;4.70;80.50
76537;DHT22;65381;51.254;15.592;2023-03-04T15:07:55;4.70;80.70
76537;DHT22;65381;51.254;15.592;2023-03-04T15:10:29;4.70;80.60
76537;DHT22;65381;51.254;15.592;2023-03-04T15:13:00;4.70;80.50
76537;DHT22;65381;51.254;15.592;2023-03-04T15:15:41;4.70;80.50
76537;DHT22;65381;51.254;15.592;2023-03-04T15:21:01;4.70;80.50
76537;DHT22;65381;51.254;15.592;2023-03-04T15:23:32;4.70;80.50
76537;DHT22;65381;51.254;15.592;2023-03-04T15:26:04;4.70;80.40
76537;DHT22;65381;51.254;15.592;2023-03-04T15:28:40;4.60;80.50
76537;DHT22;65381;51.254;15.592;2023-03-04T15:31:21;4.60;80.50
76537;DHT22;65381;51.254;15.592;2023-03-04T15:33:51;4.50;80.50
76537;DHT22;65381;51.254;15.592;2023-03-04T15:36:23;4.50;80.50
76537;DHT22;65381;51.254;15.592;2023-03-04T15:38:52;4.50;80.50
76537;DHT22;65381;51.254;15.592;2023-03-04T15:41:24;4.50;80.50
76537;DHT22;65381;51.254;15.592;2023-03-04T15:43:54;4.60;80.40
76537;DHT22;65381;51.254;15.592;2023-03-04T15:46:22;4.50;80.40
76537;DHT22;65381;51.254;15.592;2023-03-04T15:48:53;4.50;80.30
76537;DHT22;65381;51.254;15.592;2023-03-04T15:51:22;4.50;80.30
76537;DHT22;65381;51.254;15.592;2023-03-04T15:53:54;4.50;80.10
76537;DHT22;65381;51.254;15.592;2023-03-04T15:56:31;4.50;80.10
76537;DHT22;65381;51.254;15.592;2023-03-04T15:59:14;4.50;80.20
76537;DHT22;65381;51.254;15.592;2023-03-04T16:01:44;4.50;80.10
76537;DHT22;65381;51.254;15.592;2023-03-04T16:04:15;4.50;80.00
76537;DHT22;65381;51.254;15.592;2023-03-04T16:06:46;4.50;80.00
76537;DHT22;65381;51.254;15.592;2023-03-04T16:09:18;4.50;79.90
76537;DHT22;65381;51.254;15.592;2023-03-04T16:11:48;4.40;79.90
76537;DHT22;65381;51.254;15.592;2023-03-04T16:14:20;4.40;79.90
76537;DHT22;65381;51.254;15.592;2023-03-04T16:16:50;4.30;79.90
76537;DHT22;65381;51.254;15.592;2023-03-04T16:19:20;4.30;80.00
76537;DHT22;65381;51.254;15.592;2023-03-04T16:21:48;4.30;80.00
76537;DHT22;65381;51.254;15.592;2023-03-04T16:24:17;4.20;79.90
76537;DHT22;65381;51.254;15.592;2023-03-04T16:26:48;4.20;80.00
76537;DHT22;65381;51.254;15.592;2023-03-04T16:29:21;4.20;79.90
76537;DHT22;65381;51.254;15.592;2023-03-04T16:31:49;4.20;79.90
76537;DHT22;65381;51.254;15.592;2023-03-04T16:34:22;4.20;79.80
76537;DHT22;65381;51.254;15.592;2023-03-04T16:36:52;4.20;79.80
76537;DHT22;65381;51.254;15.592;2023-03-04T16:39:23;4.20;79.80
76537;DHT22;65381;51.254;15.592;2023-03-04T16:41:53;4.20;79.70
76537;DHT22;65381;51.254;15.592;2023-03-04T16:44:25;4.10;79.70
76537;DHT22;65381;51.254;15.592;2023-03-04T16:46:53;4.10;79.70
76537;DHT22;65381;51.254;15.592;2023-03-04T16:49:21;4.10;79.70
76537;DHT22;65381;51.254;15.592;2023-03-04T16:51:50;4.10;79.60
76537;DHT22;65381;51.254;15.592;2023-03-04T16:54:27;4.00;79.50
76537;DHT22;65381;51.254;15.592;2023-03-04T16:56:58;4.00;79.50
76537;DHT22;65381;51.254;15.592;2023-03-04T16:59:28;4.10;79.50
76537;DHT22;65381;51.254;15.592;2023-03-04T17:01:56;4.00;79.40
76537;DHT22;65381;51.254;15.592;2023-03-04T17:04:28;4.00;79.40
76537;DHT22;65381;51.254;15.592;2023-03-04T17:06:58;3.90;79.40
76537;DHT22;65381;51.254;15.592;2023-03-04T17:09:28;3.90;79.40
76537;DHT22;65381;51.254;15.592;2023-03-04T17:11:56;3.90;79.30
76537;DHT22;65381;51.254;15.592;2023-03-04T17:14:26;3.90;79.30
76537;DHT22;65381;51.254;15.592;2023-03-04T17:16:55;3.90;79.30
76537;DHT22;65381;51.254;15.592;2023-03-04T17:19:24;3.90;79.30
76537;DHT22;65381;51.254;15.592;2023-03-04T17:21:56;3.80;79.30
76537;DHT22;65381;51.254;15.592;2023-03-04T17:24:32;3.70;79.30
76537;DHT22;65381;51.254;15.592;2023-03-04T17:27:00;3.70;79.40
76537;DHT22;65381;51.254;15.592;2023-03-04T17:29:29;3.70;79.40
76537;DHT22;65381;51.254;15.592;2023-03-04T17:31:58;3.70;79.40
76537;DHT22;65381;51.254;15.592;2023-03-04T17:34:29;3.70;79.40
76537;DHT22;65381;51.254;15.592;2023-03-04T17:36:58;3.70;79.40
76537;DHT22;65381;51.254;15.592;2023-03-04T17:39:29;3.60;79.40
76537;DHT22;65381;51.254;15.592;2023-03-04T17:41:58;3.60;79.50
76537;DHT22;65381;51.254;15.592;2023-03-04T17:44:28;3.60;79.50
76537;DHT22;65381;51.254;15.592;2023-03-04T17:47:01;3.60;79.40
76537;DHT22;65381;51.254;15.592;2023-03-04T17:49:31;3.60;79.40